Columbia Regional Airport
KCOU : now visible

Airfield :











YOU CAN JOIN US ON...

 
LOGIN :

Register | Disclaimer

   EN    FR    IT 

 









Legend :    VFR   Marginal VFR   IFR   Intensive IFR   Very Intensive IFR
Visi :
Ceiling :
>= 8 km
>= 3000ft
5 to 8 km
1000 to 3000 ft
1500m to 5 km
500 to 1000 ft
800 to 1500m
200 to 500 ft
< 800m
< 200 ft
Symbols :   Thunderstorms  Fog  Heavy snow  Heavy precipitations  Wind > 20 kt






- Airport Elevation : 889 ft
- IATA code : COU


KCOU - Columbia Regional

CURRENT METAR :
  • 122154Z 19010KT 10SM CLR 12/M08 A3007 RMK AO2 SLP184 T01221078

EXPIRED METARs :
  • 122054Z 20016G23KT 10SM CLR 13/M08 A3008 RMK AO2 PK WND 22026/2027 SLP188 T01281078 56032
  • 121954Z 21016G29KT 10SM CLR 13/M07 A3010 RMK AO2 PK WND 21029/1946 SLP196 T01281067

TAF KCOU
Valid from the 12 at 18:00 until the 13 at 18:00 UTC


121720Z 1218/1318 19015G24KT P6SM SCT080
FM122300 18007KT P6SM BKN100



MET'MAP, your aeronautical weather chart ! - Copyright ORBIFLY December 2007 - Disclaimer

ORBIFLY MET'MAP TEAM :

Programming & Development : Alexandra Zaïnal
Concept & original design : Baudouin d'Aumeries
Assistance for programming : Marc-Olivier Méhu
Technical & hardware support : Manuel Goepfert

Contact : metmap@orbifly.com




SOURCES & CREDITS :

   NOAA       Earth
Advisory